createdAt,value
2022-11-17T00:00:38.459Z,1.95
2022-11-17T00:03:05.085Z,1.42
2022-11-17T00:05:31.643Z,0.98
2022-11-17T00:07:58.315Z,1.02
2022-11-17T00:10:24.901Z,0.88
2022-11-17T00:13:10.825Z,0.90
2022-11-17T00:15:37.449Z,1.27
2022-11-17T00:18:22.523Z,1.00
2022-11-17T00:21:24.344Z,1.23
2022-11-17T00:23:51.194Z,1.17
2022-11-17T00:26:20.420Z,1.45
2022-11-17T00:28:47.498Z,1.20
2022-11-17T00:31:33.695Z,1.48
2022-11-17T00:34:06.568Z,0.80
2022-11-17T00:36:50.948Z,1.08
2022-11-17T00:39:19.549Z,1.13
2022-11-17T00:41:46.411Z,0.73
2022-11-17T00:44:14.010Z,0.35
2022-11-17T00:46:41.220Z,1.23
2022-11-17T00:49:10.789Z,1.10
2022-11-17T00:51:37.955Z,1.13
2022-11-17T00:54:06.153Z,1.25
2022-11-17T00:56:33.539Z,0.80
2022-11-17T00:59:00.358Z,0.80
2022-11-17T01:01:27.811Z,0.82
2022-11-17T01:04:03.012Z,1.02
2022-11-17T01:06:35.775Z,1.08
2022-11-17T01:09:05.901Z,1.10
2022-11-17T01:11:32.653Z,0.70
2022-11-17T01:14:00.791Z,0.60
2022-11-17T01:16:28.807Z,1.05
2022-11-17T01:18:55.493Z,0.75
2022-11-17T01:21:24.902Z,0.90
2022-11-17T01:23:54.773Z,1.10
2022-11-17T01:26:33.155Z,1.00
2022-11-17T01:29:01.857Z,1.00
2022-11-17T01:31:34.963Z,1.00
2022-11-17T01:34:01.588Z,1.08
2022-11-17T01:36:52.774Z,0.70
2022-11-17T01:39:19.834Z,1.15
2022-11-17T01:41:46.675Z,1.20
2022-11-17T01:44:41.115Z,0.73
2022-11-17T01:47:23.669Z,0.57
2022-11-17T01:49:55.116Z,0.57
2022-11-17T01:52:23.626Z,0.90
2022-11-17T01:54:53.193Z,0.80
2022-11-17T01:57:29.477Z,0.70
2022-11-17T02:00:01.854Z,0.70
2022-11-17T02:02:28.941Z,1.10
2022-11-17T02:05:14.864Z,1.10
2022-11-17T02:07:43.194Z,0.88
2022-11-17T02:10:30.258Z,1.30
2022-11-17T02:12:57.059Z,1.00
2022-11-17T02:15:24.022Z,0.82
2022-11-17T02:17:51.367Z,1.02
2022-11-17T02:20:29.407Z,0.95
2022-11-17T02:23:04.874Z,1.08
2022-11-17T02:26:01.903Z,1.85
2022-11-17T02:28:47.992Z,0.80
2022-11-17T02:31:42.704Z,0.82
2022-11-17T02:34:18.814Z,0.90
2022-11-17T02:37:05.445Z,0.90
2022-11-17T02:39:41.559Z,0.73
2022-11-17T02:42:14.141Z,0.98
2022-11-17T02:45:02.817Z,0.70
2022-11-17T02:47:32.814Z,0.60
2022-11-17T02:50:04.917Z,0.82
2022-11-17T02:52:32.151Z,0.75
2022-11-17T02:55:03.405Z,0.68
2022-11-17T02:57:35.750Z,0.80
2022-11-17T03:00:15.002Z,0.88
2022-11-17T03:03:12.638Z,0.77
2022-11-17T03:06:14.559Z,0.70
2022-11-17T03:08:58.994Z,0.75
2022-11-17T03:11:37.526Z,0.90
2022-11-17T03:14:44.591Z,0.98
2022-11-17T03:17:20.476Z,1.20
2022-11-17T03:19:58.111Z,0.70
2022-11-17T03:22:33.379Z,0.80
2022-11-17T03:25:04.280Z,0.35
2022-11-17T03:27:45.405Z,1.20
2022-11-17T03:30:13.558Z,0.85
2022-11-17T03:32:43.629Z,0.68
2022-11-17T03:35:14.889Z,0.93
2022-11-17T03:38:09.687Z,0.85
2022-11-17T03:40:40.855Z,0.70
2022-11-17T03:43:09.369Z,0.80
2022-11-17T03:45:42.910Z,0.80
2022-11-17T03:48:21.858Z,0.82
2022-11-17T03:50:58.899Z,0.63
2022-11-17T03:53:25.496Z,0.80
2022-11-17T03:56:14.333Z,0.80
2022-11-17T03:58:54.108Z,1.02
2022-11-17T04:01:22.388Z,0.50
2022-11-17T04:03:49.038Z,1.52
2022-11-17T04:06:15.626Z,0.70
2022-11-17T04:08:42.291Z,0.30
2022-11-17T04:11:27.621Z,0.63
2022-11-17T04:14:12.934Z,0.70
2022-11-17T04:16:39.576Z,0.85
2022-11-17T04:19:06.238Z,0.60
2022-11-17T04:21:32.800Z,0.93
2022-11-17T04:23:59.385Z,0.73
2022-11-17T04:26:44.786Z,0.75
2022-11-17T04:29:11.364Z,0.80
2022-11-17T04:31:37.936Z,1.00
2022-11-17T04:34:05.914Z,0.70
2022-11-17T04:36:36.381Z,0.90
2022-11-17T04:39:03.858Z,0.73
2022-11-17T04:41:49.288Z,0.93
2022-11-17T04:44:17.605Z,0.70
2022-11-17T04:46:45.986Z,0.80
2022-11-17T04:49:14.247Z,0.60
2022-11-17T04:51:41.305Z,0.60
2022-11-17T04:54:09.586Z,0.90
2022-11-17T04:56:36.817Z,0.80
2022-11-17T04:59:03.634Z,0.70
2022-11-17T05:01:30.602Z,0.80
2022-11-17T05:04:03.163Z,0.80
2022-11-17T05:06:36.409Z,0.80
2022-11-17T05:09:09.021Z,0.88
2022-11-17T05:11:54.190Z,0.90
2022-11-17T05:14:22.372Z,0.63
2022-11-17T05:17:11.538Z,0.63
2022-11-17T05:19:39.288Z,0.60
2022-11-17T05:22:26.603Z,0.93
2022-11-17T05:24:53.215Z,0.73
2022-11-17T05:27:20.972Z,0.60
2022-11-17T05:29:47.532Z,0.60
2022-11-17T05:32:14.143Z,0.70
2022-11-17T05:34:40.879Z,0.80
2022-11-17T05:37:07.431Z,0.57
2022-11-17T05:39:34.021Z,0.98
2022-11-17T05:42:00.601Z,0.70
2022-11-17T05:44:27.159Z,0.80
2022-11-17T05:46:53.782Z,1.20
2022-11-17T05:49:20.346Z,1.52
2022-11-17T05:51:51.396Z,0.82
2022-11-17T05:54:19.184Z,0.60
2022-11-17T05:56:59.843Z,0.70
2022-11-17T05:59:39.110Z,0.50
2022-11-17T06:02:11.577Z,0.60
2022-11-17T06:04:39.269Z,1.27
2022-11-17T06:07:06.681Z,0.88
2022-11-17T06:09:36.452Z,0.82
2022-11-17T06:12:06.178Z,1.00
2022-11-17T06:14:34.163Z,0.70
2022-11-17T06:17:07.889Z,0.35
2022-11-17T06:19:38.948Z,0.95
2022-11-17T06:22:12.084Z,0.77
2022-11-17T06:24:40.443Z,0.90
2022-11-17T06:27:07.100Z,1.13
2022-11-17T06:29:36.106Z,1.13
2022-11-17T06:32:04.895Z,1.15
2022-11-17T06:34:32.813Z,0.93
2022-11-17T06:36:59.471Z,1.00
2022-11-17T06:39:26.021Z,0.70
2022-11-17T06:41:52.650Z,0.90
2022-11-17T06:44:19.204Z,0.80
2022-11-17T06:46:48.983Z,1.05
2022-11-17T06:49:16.154Z,0.85
2022-11-17T06:51:45.433Z,0.75
2022-11-17T06:54:14.290Z,1.35
2022-11-17T06:56:40.855Z,0.82
2022-11-17T06:59:07.460Z,0.70
2022-11-17T07:01:34.062Z,0.77
2022-11-17T07:04:00.700Z,0.77
2022-11-17T07:06:27.285Z,1.00
2022-11-17T07:08:53.882Z,0.90
2022-11-17T07:11:20.443Z,0.93
2022-11-17T07:13:47.171Z,0.90
2022-11-17T07:16:22.887Z,0.57
2022-11-17T07:18:50.627Z,0.65
2022-11-17T07:21:17.835Z,0.82
2022-11-17T07:23:45.617Z,0.65
2022-11-17T07:26:12.233Z,0.90
2022-11-17T07:28:39.120Z,0.70
2022-11-17T07:31:07.967Z,0.75
2022-11-17T07:33:34.951Z,1.15
2022-11-17T07:36:10.024Z,1.10
2022-11-17T07:38:38.571Z,0.70
2022-11-17T07:41:06.865Z,1.33
2022-11-17T07:43:34.575Z,0.50
2022-11-17T07:46:10.264Z,0.55
2022-11-17T07:48:37.309Z,0.60
2022-11-17T07:51:04.704Z,0.63
2022-11-17T07:53:33.133Z,0.93
2022-11-17T07:56:07.845Z,0.80
2022-11-17T07:58:35.672Z,0.75
2022-11-17T08:01:07.485Z,0.60
2022-11-17T08:03:34.271Z,0.70
2022-11-17T08:06:05.265Z,0.70
2022-11-17T08:08:32.336Z,0.55
2022-11-17T08:11:07.062Z,0.60
2022-11-17T08:13:34.468Z,0.65
2022-11-17T08:16:01.169Z,0.57
2022-11-17T08:18:28.939Z,1.00
2022-11-17T08:21:07.799Z,0.68
2022-11-17T08:23:35.105Z,0.55
2022-11-17T08:26:03.548Z,1.15
2022-11-17T08:28:30.470Z,0.75
2022-11-17T08:30:57.254Z,0.70
2022-11-17T08:33:24.017Z,0.60
2022-11-17T08:35:50.588Z,0.70
2022-11-17T08:38:17.270Z,1.10
2022-11-17T08:40:44.234Z,0.60
2022-11-17T08:43:10.791Z,0.60
2022-11-17T08:45:37.419Z,0.65
2022-11-17T08:48:04.210Z,0.80
2022-11-17T08:50:30.811Z,0.60
2022-11-17T08:52:57.373Z,0.85
2022-11-17T08:55:26.056Z,0.82
2022-11-17T08:57:52.791Z,0.90
2022-11-17T09:00:21.593Z,0.47
2022-11-17T09:02:48.355Z,0.50
2022-11-17T09:05:15.042Z,0.93
2022-11-17T09:07:41.647Z,1.15
2022-11-17T09:10:10.846Z,0.60
2022-11-17T09:12:37.682Z,0.60
2022-11-17T09:15:05.595Z,0.60
2022-11-17T09:17:32.349Z,0.80
2022-11-17T09:19:59.068Z,0.95
2022-11-17T09:22:25.684Z,1.00
2022-11-17T09:24:52.236Z,0.60
2022-11-17T09:27:18.923Z,0.70
2022-11-17T09:29:45.611Z,0.55
2022-11-17T09:32:13.318Z,0.60
2022-11-17T09:34:39.991Z,0.63
2022-11-17T09:37:06.564Z,0.80
2022-11-17T09:39:33.184Z,0.60
2022-11-17T09:41:59.976Z,0.90
2022-11-17T09:44:39.760Z,0.60
2022-11-17T09:47:35.218Z,0.70
2022-11-17T09:50:27.127Z,0.70
2022-11-17T09:53:11.879Z,0.90
2022-11-17T09:55:47.376Z,0.43
2022-11-17T09:58:45.093Z,0.75
2022-11-17T10:01:20.462Z,0.82
2022-11-17T10:03:49.492Z,0.40
2022-11-17T10:06:22.906Z,0.63
2022-11-17T10:09:25.457Z,0.50
2022-11-17T10:11:54.452Z,0.50
2022-11-17T10:14:22.199Z,0.45
2022-11-17T10:16:54.768Z,0.55
2022-11-17T10:19:25.326Z,0.60
2022-11-17T10:22:01.443Z,0.52
2022-11-17T10:24:55.308Z,0.50
2022-11-17T10:27:23.489Z,0.63
2022-11-17T10:29:56.271Z,0.90
2022-11-17T10:32:22.919Z,0.80
2022-11-17T10:34:49.540Z,0.85
2022-11-17T10:37:18.822Z,0.52
2022-11-17T10:39:46.321Z,0.70
2022-11-17T10:42:30.024Z,0.70
2022-11-17T10:44:59.952Z,0.57
2022-11-17T10:47:30.544Z,0.82
2022-11-17T10:50:12.260Z,0.80
2022-11-17T10:52:38.843Z,0.77
2022-11-17T10:55:28.034Z,0.82
2022-11-17T10:58:02.063Z,0.52
2022-11-17T11:00:35.351Z,0.50
2022-11-17T11:03:19.961Z,0.80
2022-11-17T11:06:02.968Z,0.50
2022-11-17T11:08:52.321Z,0.73
2022-11-17T11:11:38.375Z,1.02
2022-11-17T11:14:19.965Z,0.50
2022-11-17T11:16:49.105Z,0.55
2022-11-17T11:19:17.859Z,0.73
2022-11-17T11:22:21.357Z,1.00
2022-11-17T11:24:55.481Z,0.65
2022-11-17T11:27:35.121Z,0.68
2022-11-17T11:30:06.136Z,0.85
2022-11-17T11:32:51.087Z,0.80
2022-11-17T11:35:49.031Z,0.57
2022-11-17T11:38:30.850Z,0.60
2022-11-17T11:41:15.592Z,0.65
2022-11-17T11:43:57.350Z,0.50
2022-11-17T11:46:52.225Z,1.00
2022-11-17T11:49:38.144Z,1.08
2022-11-17T11:52:10.547Z,0.73
2022-11-17T11:54:50.441Z,0.60
2022-11-17T11:57:20.673Z,0.50
2022-11-17T12:00:02.388Z,0.50
2022-11-17T12:02:51.484Z,0.57
2022-11-17T12:05:28.480Z,0.70
2022-11-17T12:08:10.134Z,0.65
2022-11-17T12:10:42.411Z,0.43
2022-11-17T12:13:15.822Z,0.70
2022-11-17T12:15:42.656Z,0.95
2022-11-17T12:18:18.125Z,0.90
2022-11-17T12:20:50.287Z,0.70
2022-11-17T12:23:34.540Z,0.60
2022-11-17T12:26:01.787Z,0.40
2022-11-17T12:28:40.992Z,0.80
2022-11-17T12:31:10.737Z,0.60
2022-11-17T12:33:52.639Z,0.50
2022-11-17T12:36:31.160Z,0.90
2022-11-17T12:39:00.956Z,0.60
2022-11-17T12:41:49.677Z,0.43
2022-11-17T12:44:38.237Z,0.50
2022-11-17T12:47:10.065Z,0.85
2022-11-17T12:49:46.366Z,0.63
2022-11-17T12:52:32.754Z,0.68
2022-11-17T12:55:13.247Z,0.93
2022-11-17T12:57:39.952Z,0.60
2022-11-17T13:00:30.558Z,0.63
2022-11-17T13:03:04.647Z,0.80
2022-11-17T13:05:33.675Z,0.70
2022-11-17T13:08:22.775Z,0.68
2022-11-17T13:10:50.869Z,0.90
2022-11-17T13:13:23.481Z,1.15
2022-11-17T13:15:58.702Z,0.82
2022-11-17T13:18:41.367Z,0.60
2022-11-17T13:21:26.323Z,1.05
2022-11-17T13:23:53.662Z,0.80
2022-11-17T13:26:23.169Z,0.80
2022-11-17T13:29:06.453Z,0.93
2022-11-17T13:31:33.496Z,2.33
2022-11-17T13:34:12.741Z,0.70
2022-11-17T13:36:59.948Z,0.75
2022-11-17T13:39:27.999Z,1.10
2022-11-17T13:41:56.040Z,0.60
2022-11-17T13:44:25.390Z,0.90
2022-11-17T13:46:52.109Z,0.70
2022-11-17T13:49:39.166Z,1.15
2022-11-17T13:52:14.789Z,0.70
2022-11-17T13:54:44.586Z,0.70
2022-11-17T13:57:27.289Z,1.00
2022-11-17T13:59:54.836Z,1.08
2022-11-17T14:02:21.448Z,0.73
2022-11-17T14:05:09.727Z,0.90
2022-11-17T14:07:38.852Z,0.65
2022-11-17T14:10:28.219Z,0.90
2022-11-17T14:13:22.785Z,1.10
2022-11-17T14:15:56.598Z,0.98
2022-11-17T14:18:28.235Z,0.85
2022-11-17T14:21:08.958Z,0.70
2022-11-17T14:23:35.992Z,0.90
2022-11-17T14:26:02.648Z,0.80
2022-11-17T14:28:29.440Z,0.70
2022-11-17T14:30:57.733Z,0.80
2022-11-17T14:33:24.772Z,0.90
2022-11-17T14:35:54.851Z,0.90
2022-11-17T14:40:46.608Z,1.20
2022-11-17T14:43:13.186Z,1.15
2022-11-17T14:45:39.782Z,0.70
2022-11-17T14:48:06.515Z,0.80
2022-11-17T14:50:33.566Z,1.30
2022-11-17T14:53:00.291Z,1.02
2022-11-17T14:55:27.654Z,0.90
2022-11-17T14:57:54.523Z,0.70
2022-11-17T15:00:21.631Z,0.90
2022-11-17T15:02:48.513Z,0.90
2022-11-17T15:05:15.343Z,0.90
2022-11-17T15:07:42.432Z,0.80
2022-11-17T15:10:09.748Z,0.80
2022-11-17T15:12:36.612Z,0.90
2022-11-17T15:15:04.935Z,1.00
2022-11-17T15:17:31.710Z,0.95
2022-11-17T15:19:58.264Z,0.93
2022-11-17T15:22:24.817Z,1.00
2022-11-17T15:24:51.386Z,1.05
2022-11-17T15:27:17.937Z,1.10
2022-11-17T15:29:44.473Z,1.15
2022-11-17T15:32:11.061Z,1.48
2022-11-17T15:34:37.691Z,1.50
2022-11-17T15:37:05.297Z,0.82
2022-11-17T15:39:31.889Z,1.42
2022-11-17T15:41:58.462Z,0.95
2022-11-17T15:44:25.037Z,2.20
2022-11-17T15:46:51.566Z,0.75
2022-11-17T15:49:18.579Z,1.05
2022-11-17T15:51:45.472Z,0.68
2022-11-17T15:54:19.639Z,1.05
2022-11-17T15:56:47.118Z,0.90
2022-11-17T15:59:14.559Z,0.65
2022-11-17T16:01:41.495Z,0.90
2022-11-17T16:04:10.410Z,0.93
2022-11-17T16:06:41.655Z,1.00
2022-11-17T16:09:09.383Z,0.90
2022-11-17T16:11:36.694Z,1.40
2022-11-17T16:14:04.077Z,1.60
2022-11-17T16:16:33.768Z,1.15
2022-11-17T16:19:00.529Z,1.33
2022-11-17T16:21:27.153Z,1.27
2022-11-17T16:23:56.076Z,1.70
2022-11-17T16:26:24.886Z,1.40
2022-11-17T16:29:03.976Z,2.00
2022-11-17T16:31:32.952Z,1.42
2022-11-17T16:34:05.106Z,1.60
2022-11-17T16:36:36.905Z,1.88
2022-11-17T16:39:06.242Z,1.20
2022-11-17T16:41:35.285Z,1.90
2022-11-17T16:44:05.977Z,1.90
2022-11-17T16:46:32.614Z,1.17
2022-11-17T16:49:02.718Z,1.55
2022-11-17T16:51:29.392Z,1.27
2022-11-17T16:53:58.179Z,1.75
2022-11-17T16:56:24.763Z,1.60
2022-11-17T16:58:51.834Z,1.42
2022-11-17T17:01:21.634Z,1.30
2022-11-17T17:03:48.237Z,1.70
2022-11-17T17:06:17.707Z,1.33
2022-11-17T17:08:44.655Z,1.40
2022-11-17T17:11:13.567Z,1.30
2022-11-17T17:13:40.749Z,0.90
2022-11-17T17:16:13.023Z,1.45
2022-11-17T17:18:40.626Z,1.67
2022-11-17T17:21:11.824Z,1.83
2022-11-17T17:23:38.516Z,1.10
2022-11-17T17:26:06.538Z,1.80
2022-11-17T17:28:34.963Z,1.75
2022-11-17T17:31:03.111Z,1.58
2022-11-17T17:33:34.598Z,2.08
2022-11-17T17:36:09.272Z,1.48
2022-11-17T17:38:35.986Z,1.38
2022-11-17T17:41:07.714Z,1.10
2022-11-17T17:43:35.000Z,1.60
2022-11-17T17:46:02.728Z,1.83
2022-11-17T17:48:37.455Z,1.40
2022-11-17T17:51:15.256Z,1.13
2022-11-17T17:53:42.316Z,1.52
2022-11-17T17:56:14.026Z,1.08
2022-11-17T17:58:41.392Z,1.30
2022-11-17T18:01:18.336Z,0.90
2022-11-17T18:03:47.827Z,1.40
2022-11-17T18:06:19.519Z,2.15
2022-11-17T18:08:46.489Z,1.65
2022-11-17T18:11:19.265Z,0.82
2022-11-17T18:13:48.094Z,1.00
2022-11-17T18:16:17.319Z,1.30
2022-11-17T18:18:45.501Z,1.40
2022-11-17T18:21:14.490Z,1.50
2022-11-17T18:23:41.657Z,1.92
2022-11-17T18:26:11.868Z,1.67
2022-11-17T18:28:39.442Z,1.15
2022-11-17T18:31:06.899Z,2.53
2022-11-17T18:33:33.990Z,2.42
2022-11-17T18:36:08.498Z,1.77
2022-11-17T18:38:36.514Z,2.05
2022-11-17T18:41:08.401Z,2.60
2022-11-17T18:43:35.911Z,1.70
2022-11-17T18:46:11.715Z,2.05
2022-11-17T18:48:40.018Z,1.20
2022-11-17T18:51:24.030Z,2.40
2022-11-17T18:53:52.196Z,1.50
2022-11-17T18:56:24.863Z,2.00
2022-11-17T18:58:51.979Z,2.15
2022-11-17T19:01:21.173Z,1.70
2022-11-17T19:03:50.600Z,2.03
2022-11-17T19:06:18.665Z,2.20
2022-11-17T19:08:46.084Z,1.80
2022-11-17T19:11:13.001Z,1.73
2022-11-17T19:13:41.358Z,1.60
2022-11-17T19:16:13.427Z,1.23
2022-11-17T19:18:40.430Z,1.83
2022-11-17T19:21:09.278Z,1.77
2022-11-17T19:23:37.834Z,1.92
2022-11-17T19:26:06.203Z,1.83
2022-11-17T19:28:33.342Z,2.13
2022-11-17T19:31:04.566Z,1.70
2022-11-17T19:33:32.484Z,2.00
2022-11-17T19:36:09.391Z,1.65
2022-11-17T19:38:38.475Z,2.08
2022-11-17T19:41:07.132Z,2.10
2022-11-17T19:43:34.589Z,1.85
2022-11-17T19:46:03.527Z,1.60
2022-11-17T19:48:31.143Z,1.63
2022-11-17T19:50:58.851Z,1.70
2022-11-17T19:53:26.043Z,1.67
2022-11-17T19:55:53.009Z,1.45
2022-11-17T19:58:20.321Z,1.42
2022-11-17T20:00:48.487Z,1.42
2022-11-17T20:03:18.043Z,1.38
2022-11-17T20:05:45.345Z,1.65
2022-11-17T20:08:11.944Z,1.60
2022-11-17T20:10:38.644Z,2.45
2022-11-17T20:13:05.266Z,1.90
2022-11-17T20:15:35.163Z,1.77
2022-11-17T20:18:01.944Z,2.03
2022-11-17T20:20:28.590Z,2.58
2022-11-17T20:22:55.647Z,2.10
2022-11-17T20:25:22.188Z,1.98
2022-11-17T20:27:48.766Z,2.75
2022-11-17T20:30:15.851Z,2.28
2022-11-17T20:32:42.423Z,2.33
2022-11-17T20:35:09.234Z,2.38
2022-11-17T20:37:35.795Z,1.50
2022-11-17T20:40:02.449Z,2.08
2022-11-17T20:42:29.023Z,1.90
2022-11-17T20:44:55.578Z,1.63
2022-11-17T20:47:27.407Z,1.88
2022-11-17T20:49:55.087Z,2.25
2022-11-17T20:52:21.641Z,3.13
2022-11-17T20:54:48.198Z,2.58
2022-11-17T20:57:14.785Z,2.63
2022-11-17T20:59:41.334Z,2.53
2022-11-17T21:02:10.126Z,2.50
2022-11-17T21:04:36.738Z,2.55
2022-11-17T21:07:03.391Z,2.75
2022-11-17T21:09:29.966Z,2.28
2022-11-17T21:11:56.537Z,2.97
2022-11-17T21:14:25.908Z,2.67
2022-11-17T21:16:53.376Z,2.92
2022-11-17T21:19:20.183Z,2.95
2022-11-17T21:21:46.908Z,2.53
2022-11-17T21:24:13.522Z,2.58
2022-11-17T21:26:40.128Z,3.00
2022-11-17T21:29:07.199Z,3.00
2022-11-17T21:31:35.020Z,2.83
2022-11-17T21:34:04.239Z,2.90
2022-11-17T21:36:31.780Z,2.90
2022-11-17T21:38:58.921Z,2.42
2022-11-17T21:41:27.934Z,3.00
2022-11-17T21:43:57.878Z,2.70
2022-11-17T21:46:26.917Z,2.75
2022-11-17T21:48:55.328Z,2.50
2022-11-17T21:51:24.671Z,2.70
2022-11-17T21:53:56.211Z,2.88
2022-11-17T21:56:26.345Z,3.33
2022-11-17T21:59:01.892Z,2.53
2022-11-17T22:01:28.767Z,2.97
2022-11-17T22:03:55.542Z,2.22
2022-11-17T22:06:24.220Z,2.47
2022-11-17T22:08:51.458Z,2.92
2022-11-17T22:11:36.500Z,3.00
2022-11-17T22:14:08.157Z,3.17
2022-11-17T22:16:36.786Z,3.05
2022-11-17T22:19:03.875Z,3.22
2022-11-17T22:21:30.536Z,3.30
2022-11-17T22:23:57.532Z,3.92
2022-11-17T22:26:24.377Z,3.83
2022-11-17T22:28:55.317Z,3.25
2022-11-17T22:31:22.748Z,3.35
2022-11-17T22:33:50.056Z,3.65
2022-11-17T22:36:17.397Z,4.00
2022-11-17T22:38:44.495Z,4.03
2022-11-17T22:41:13.345Z,4.25
2022-11-17T22:43:39.971Z,3.88
2022-11-17T22:46:10.048Z,3.55
2022-11-17T22:48:37.616Z,3.35
2022-11-17T22:51:04.906Z,3.33
2022-11-17T22:53:33.366Z,3.13
2022-11-17T22:56:07.466Z,3.25
2022-11-17T22:58:34.621Z,3.55
2022-11-17T23:01:07.899Z,2.90
2022-11-17T23:03:34.588Z,2.72
2022-11-17T23:06:05.099Z,2.67
2022-11-17T23:08:32.188Z,2.53
2022-11-17T23:11:34.797Z,3.25
2022-11-17T23:13:50.521Z,2.78
2022-11-17T23:16:17.593Z,2.40
2022-11-17T23:18:44.209Z,3.00
2022-11-17T23:21:11.171Z,2.80
2022-11-17T23:23:39.844Z,3.15
2022-11-17T23:26:11.555Z,2.78
2022-11-17T23:28:39.999Z,3.70
2022-11-17T23:31:10.023Z,2.75
2022-11-17T23:33:40.878Z,2.80
2022-11-17T23:36:13.403Z,2.28
2022-11-17T23:38:40.399Z,2.75
2022-11-17T23:41:10.077Z,2.67
2022-11-17T23:43:36.730Z,3.20
2022-11-17T23:46:05.825Z,2.50
2022-11-17T23:48:32.727Z,3.03
2022-11-17T23:51:03.838Z,2.30
2022-11-17T23:53:30.701Z,2.42
2022-11-17T23:55:57.731Z,2.50
2022-11-17T23:58:24.586Z,3.10
